sensor_id;sensor_type;location;lat;lon;timestamp;temperature;humidity
54700;DHT22;40599;53.132;6.090;2022-11-11T00:02:24;12.10;99.90
54700;DHT22;40599;53.132;6.090;2022-11-11T00:04:50;12.00;99.90
54700;DHT22;40599;53.132;6.090;2022-11-11T00:07:15;12.00;99.90
54700;DHT22;40599;53.132;6.090;2022-11-11T00:09:41;12.00;99.90
54700;DHT22;40599;53.132;6.090;2022-11-11T00:12:06;11.90;99.90
54700;DHT22;40599;53.132;6.090;2022-11-11T00:14:32;12.00;99.90
54700;DHT22;40599;53.132;6.090;2022-11-11T00:16:58;12.00;99.90
54700;DHT22;40599;53.132;6.090;2022-11-11T00:19:42;11.90;99.90
54700;DHT22;40599;53.132;6.090;2022-11-11T00:22:26;12.00;99.90
54700;DHT22;40599;53.132;6.090;2022-11-11T00:24:52;12.00;99.90
54700;DHT22;40599;53.132;6.090;2022-11-11T00:27:34;12.00;99.90
54700;DHT22;40599;53.132;6.090;2022-11-11T00:30:00;12.00;99.90
54700;DHT22;40599;53.132;6.090;2022-11-11T00:32:25;12.00;99.90
54700;DHT22;40599;53.132;6.090;2022-11-11T00:34:53;12.00;99.90
54700;DHT22;40599;53.132;6.090;2022-11-11T00:37:38;12.00;99.90
54700;DHT22;40599;53.132;6.090;2022-11-11T00:40:04;12.00;99.90
54700;DHT22;40599;53.132;6.090;2022-11-11T00:42:29;12.00;99.90
54700;DHT22;40599;53.132;6.090;2022-11-11T00:44:55;12.00;99.90
54700;DHT22;40599;53.132;6.090;2022-11-11T00:47:21;12.00;99.90
54700;DHT22;40599;53.132;6.090;2022-11-11T00:50:47;12.10;99.90
54700;DHT22;40599;53.132;6.090;2022-11-11T00:53:20;12.10;99.90
54700;DHT22;40599;53.132;6.090;2022-11-11T00:55:46;12.10;99.90
54700;DHT22;40599;53.132;6.090;2022-11-11T00:58:12;12.10;99.90
54700;DHT22;40599;53.132;6.090;2022-11-11T01:00:38;12.10;99.90
54700;DHT22;40599;53.132;6.090;2022-11-11T01:03:03;12.20;99.90
54700;DHT22;40599;53.132;6.090;2022-11-11T01:05:29;12.20;99.90
54700;DHT22;40599;53.132;6.090;2022-11-11T01:07:54;12.20;99.90
54700;DHT22;40599;53.132;6.090;2022-11-11T01:10:20;12.20;99.90
54700;DHT22;40599;53.132;6.090;2022-11-11T01:13:19;12.20;99.90
54700;DHT22;40599;53.132;6.090;2022-11-11T01:15:46;12.20;99.90
54700;DHT22;40599;53.132;6.090;2022-11-11T01:18:12;12.20;99.90
54700;DHT22;40599;53.132;6.090;2022-11-11T01:20:38;12.20;99.90
54700;DHT22;40599;53.132;6.090;2022-11-11T01:23:04;12.20;99.90
54700;DHT22;40599;53.132;6.090;2022-11-11T01:25:34;12.20;99.90
54700;DHT22;40599;53.132;6.090;2022-11-11T01:28:00;12.20;99.90
54700;DHT22;40599;53.132;6.090;2022-11-11T01:30:25;12.20;99.90
54700;DHT22;40599;53.132;6.090;2022-11-11T01:32:51;12.20;99.90
54700;DHT22;40599;53.132;6.090;2022-11-11T01:35:17;12.20;99.90
54700;DHT22;40599;53.132;6.090;2022-11-11T01:37:42;12.20;99.90
54700;DHT22;40599;53.132;6.090;2022-11-11T01:40:08;12.20;99.90
54700;DHT22;40599;53.132;6.090;2022-11-11T01:47:56;12.20;99.90
54700;DHT22;40599;53.132;6.090;2022-11-11T01:50:40;12.20;99.90
54700;DHT22;40599;53.132;6.090;2022-11-11T01:53:06;12.10;99.90
54700;DHT22;40599;53.132;6.090;2022-11-11T01:55:31;12.20;99.90
54700;DHT22;40599;53.132;6.090;2022-11-11T01:58:05;12.10;99.90
54700;DHT22;40599;53.132;6.090;2022-11-11T02:00:31;12.10;99.90
54700;DHT22;40599;53.132;6.090;2022-11-11T02:03:03;12.10;99.90
54700;DHT22;40599;53.132;6.090;2022-11-11T02:05:29;12.10;99.90
54700;DHT22;40599;53.132;6.090;2022-11-11T02:08:26;12.10;99.90
54700;DHT22;40599;53.132;6.090;2022-11-11T02:11:12;12.10;99.90
54700;DHT22;40599;53.132;6.090;2022-11-11T02:13:39;12.10;99.90
54700;DHT22;40599;53.132;6.090;2022-11-11T02:16:24;12.10;99.90
54700;DHT22;40599;53.132;6.090;2022-11-11T02:18:50;12.10;99.90
54700;DHT22;40599;53.132;6.090;2022-11-11T02:21:22;12.10;99.90
54700;DHT22;40599;53.132;6.090;2022-11-11T02:26:17;12.00;99.90
54700;DHT22;40599;53.132;6.090;2022-11-11T02:28:43;11.90;99.90
54700;DHT22;40599;53.132;6.090;2022-11-11T02:31:08;11.90;99.90
54700;DHT22;40599;53.132;6.090;2022-11-11T02:33:34;11.90;99.90
54700;DHT22;40599;53.132;6.090;2022-11-11T02:36:00;11.90;99.90
54700;DHT22;40599;53.132;6.090;2022-11-11T02:38:26;11.90;99.90
54700;DHT22;40599;53.132;6.090;2022-11-11T02:40:53;11.80;99.90
54700;DHT22;40599;53.132;6.090;2022-11-11T02:43:41;11.80;99.90
54700;DHT22;40599;53.132;6.090;2022-11-11T02:46:07;11.70;99.90
54700;DHT22;40599;53.132;6.090;2022-11-11T02:48:33;11.70;99.90
54700;DHT22;40599;53.132;6.090;2022-11-11T02:50:58;11.70;99.90
54700;DHT22;40599;53.132;6.090;2022-11-11T02:53:24;11.60;99.90
54700;DHT22;40599;53.132;6.090;2022-11-11T02:55:50;11.60;99.90
54700;DHT22;40599;53.132;6.090;2022-11-11T02:58:15;11.60;99.90
54700;DHT22;40599;53.132;6.090;2022-11-11T03:00:41;11.60;99.90
54700;DHT22;40599;53.132;6.090;2022-11-11T03:03:09;11.50;99.90
54700;DHT22;40599;53.132;6.090;2022-11-11T03:05:35;11.50;99.90
54700;DHT22;40599;53.132;6.090;2022-11-11T03:08:01;11.50;99.90
54700;DHT22;40599;53.132;6.090;2022-11-11T03:10:27;11.50;99.90
54700;DHT22;40599;53.132;6.090;2022-11-11T03:12:53;11.50;99.90
54700;DHT22;40599;53.132;6.090;2022-11-11T03:15:18;11.50;99.90
54700;DHT22;40599;53.132;6.090;2022-11-11T03:17:44;11.50;99.90
54700;DHT22;40599;53.132;6.090;2022-11-11T03:20:14;11.50;99.90
54700;DHT22;40599;53.132;6.090;2022-11-11T03:22:59;11.40;99.90
54700;DHT22;40599;53.132;6.090;2022-11-11T03:25:25;11.50;99.90
54700;DHT22;40599;53.132;6.090;2022-11-11T03:28:18;11.50;99.90
54700;DHT22;40599;53.132;6.090;2022-11-11T03:30:45;11.50;99.90
54700;DHT22;40599;53.132;6.090;2022-11-11T03:33:11;11.50;99.90
54700;DHT22;40599;53.132;6.090;2022-11-11T03:35:37;11.40;99.90
54700;DHT22;40599;53.132;6.090;2022-11-11T03:38:03;11.50;99.90
54700;DHT22;40599;53.132;6.090;2022-11-11T03:40:52;11.50;99.90
54700;DHT22;40599;53.132;6.090;2022-11-11T03:43:19;11.50;99.90
54700;DHT22;40599;53.132;6.090;2022-11-11T03:45:45;11.40;99.90
54700;DHT22;40599;53.132;6.090;2022-11-11T03:48:11;11.50;99.90
54700;DHT22;40599;53.132;6.090;2022-11-11T03:50:37;11.40;99.90
54700;DHT22;40599;53.132;6.090;2022-11-11T03:53:02;11.40;99.90
54700;DHT22;40599;53.132;6.090;2022-11-11T03:55:28;11.40;99.90
54700;DHT22;40599;53.132;6.090;2022-11-11T03:57:54;11.40;99.90
54700;DHT22;40599;53.132;6.090;2022-11-11T04:00:21;11.40;99.90
54700;DHT22;40599;53.132;6.090;2022-11-11T04:02:47;11.40;99.90
54700;DHT22;40599;53.132;6.090;2022-11-11T04:05:31;11.40;99.90
54700;DHT22;40599;53.132;6.090;2022-11-11T04:08:16;11.40;99.90
54700;DHT22;40599;53.132;6.090;2022-11-11T04:11:06;11.40;99.90
54700;DHT22;40599;53.132;6.090;2022-11-11T04:13:32;11.40;99.90
54700;DHT22;40599;53.132;6.090;2022-11-11T04:16:17;11.30;99.90
54700;DHT22;40599;53.132;6.090;2022-11-11T04:18:42;11.60;99.90
54700;DHT22;40599;53.132;6.090;2022-11-11T04:21:27;11.30;99.90
54700;DHT22;40599;53.132;6.090;2022-11-11T04:24:19;11.30;99.90
54700;DHT22;40599;53.132;6.090;2022-11-11T04:27:07;11.30;99.90
54700;DHT22;40599;53.132;6.090;2022-11-11T04:29:33;11.30;99.90
54700;DHT22;40599;53.132;6.090;2022-11-11T04:31:59;11.30;99.90
54700;DHT22;40599;53.132;6.090;2022-11-11T04:34:45;11.30;99.90
54700;DHT22;40599;53.132;6.090;2022-11-11T04:37:11;11.30;99.90
54700;DHT22;40599;53.132;6.090;2022-11-11T04:39:36;11.30;99.90
54700;DHT22;40599;53.132;6.090;2022-11-11T04:42:21;11.30;99.90
54700;DHT22;40599;53.132;6.090;2022-11-11T04:44:46;11.20;99.90
54700;DHT22;40599;53.132;6.090;2022-11-11T04:47:31;11.30;99.90
54700;DHT22;40599;53.132;6.090;2022-11-11T04:49:56;11.30;99.90
54700;DHT22;40599;53.132;6.090;2022-11-11T04:52:22;11.30;99.90
54700;DHT22;40599;53.132;6.090;2022-11-11T04:54:51;11.20;99.90
54700;DHT22;40599;53.132;6.090;2022-11-11T04:57:39;11.30;99.90
54700;DHT22;40599;53.132;6.090;2022-11-11T05:00:06;11.20;99.90
54700;DHT22;40599;53.132;6.090;2022-11-11T05:02:31;11.20;99.90
54700;DHT22;40599;53.132;6.090;2022-11-11T05:05:16;11.20;99.90
54700;DHT22;40599;53.132;6.090;2022-11-11T05:07:41;11.10;99.90
54700;DHT22;40599;53.132;6.090;2022-11-11T05:10:25;11.10;99.90
54700;DHT22;40599;53.132;6.090;2022-11-11T05:12:51;11.10;99.90
54700;DHT22;40599;53.132;6.090;2022-11-11T05:15:16;11.00;99.90
54700;DHT22;40599;53.132;6.090;2022-11-11T05:18:00;11.00;99.90
54700;DHT22;40599;53.132;6.090;2022-11-11T05:20:47;11.00;99.90
54700;DHT22;40599;53.132;6.090;2022-11-11T05:23:31;11.00;99.90
54700;DHT22;40599;53.132;6.090;2022-11-11T05:26:16;10.90;99.90
54700;DHT22;40599;53.132;6.090;2022-11-11T05:28:41;12.20;99.90
54700;DHT22;40599;53.132;6.090;2022-11-11T05:31:07;10.90;99.90
54700;DHT22;40599;53.132;6.090;2022-11-11T05:33:32;12.80;99.90
54700;DHT22;40599;53.132;6.090;2022-11-11T05:35:58;10.90;99.90
54700;DHT22;40599;53.132;6.090;2022-11-11T05:38:24;10.90;99.90
54700;DHT22;40599;53.132;6.090;2022-11-11T05:40:49;10.80;99.90
54700;DHT22;40599;53.132;6.090;2022-11-11T05:43:15;10.80;99.90
54700;DHT22;40599;53.132;6.090;2022-11-11T05:45:40;10.70;99.90
54700;DHT22;40599;53.132;6.090;2022-11-11T05:48:07;10.80;99.90
54700;DHT22;40599;53.132;6.090;2022-11-11T05:50:32;10.90;99.90
54700;DHT22;40599;53.132;6.090;2022-11-11T05:52:59;11.00;99.90
54700;DHT22;40599;53.132;6.090;2022-11-11T05:55:24;10.90;99.90
54700;DHT22;40599;53.132;6.090;2022-11-11T05:57:50;10.80;99.90
54700;DHT22;40599;53.132;6.090;2022-11-11T06:00:16;10.80;99.90
54700;DHT22;40599;53.132;6.090;2022-11-11T06:02:41;10.90;99.90
54700;DHT22;40599;53.132;6.090;2022-11-11T06:05:07;11.00;99.90
54700;DHT22;40599;53.132;6.090;2022-11-11T06:07:36;11.10;99.90
54700;DHT22;40599;53.132;6.090;2022-11-11T06:10:01;11.00;99.90
54700;DHT22;40599;53.132;6.090;2022-11-11T06:12:47;11.00;99.90
54700;DHT22;40599;53.132;6.090;2022-11-11T06:15:34;11.10;99.90
54700;DHT22;40599;53.132;6.090;2022-11-11T06:18:00;11.10;99.90
54700;DHT22;40599;53.132;6.090;2022-11-11T06:20:26;10.90;99.90
54700;DHT22;40599;53.132;6.090;2022-11-11T06:22:52;11.10;99.90
54700;DHT22;40599;53.132;6.090;2022-11-11T06:25:24;11.20;99.90
54700;DHT22;40599;53.132;6.090;2022-11-11T06:28:08;11.30;99.90
54700;DHT22;40599;53.132;6.090;2022-11-11T06:30:34;11.30;99.90
54700;DHT22;40599;53.132;6.090;2022-11-11T06:33:00;11.30;99.90
54700;DHT22;40599;53.132;6.090;2022-11-11T06:35:26;11.30;99.90
54700;DHT22;40599;53.132;6.090;2022-11-11T06:37:51;11.30;99.90
54700;DHT22;40599;53.132;6.090;2022-11-11T06:40:17;11.30;99.90
54700;DHT22;40599;53.132;6.090;2022-11-11T06:42:43;11.30;99.90
54700;DHT22;40599;53.132;6.090;2022-11-11T06:45:08;11.30;99.90
54700;DHT22;40599;53.132;6.090;2022-11-11T06:47:34;11.30;99.90
54700;DHT22;40599;53.132;6.090;2022-11-11T06:50:00;11.30;99.90
54700;DHT22;40599;53.132;6.090;2022-11-11T06:52:25;11.30;99.90
54700;DHT22;40599;53.132;6.090;2022-11-11T06:54:51;11.30;99.90
54700;DHT22;40599;53.132;6.090;2022-11-11T06:57:17;11.30;99.90
54700;DHT22;40599;53.132;6.090;2022-11-11T06:59:42;11.20;99.90
54700;DHT22;40599;53.132;6.090;2022-11-11T07:02:11;11.30;99.90
54700;DHT22;40599;53.132;6.090;2022-11-11T07:04:37;11.20;99.90
54700;DHT22;40599;53.132;6.090;2022-11-11T07:07:02;11.30;99.90
54700;DHT22;40599;53.132;6.090;2022-11-11T07:09:28;11.30;99.90
54700;DHT22;40599;53.132;6.090;2022-11-11T07:11:53;11.20;99.90
54700;DHT22;40599;53.132;6.090;2022-11-11T07:14:19;10.90;99.90
54700;DHT22;40599;53.132;6.090;2022-11-11T07:16:45;11.20;99.90
54700;DHT22;40599;53.132;6.090;2022-11-11T07:19:10;11.20;99.90
54700;DHT22;40599;53.132;6.090;2022-11-11T07:21:36;11.20;99.90
54700;DHT22;40599;53.132;6.090;2022-11-11T07:24:02;11.20;99.90
54700;DHT22;40599;53.132;6.090;2022-11-11T07:26:27;11.30;99.90
54700;DHT22;40599;53.132;6.090;2022-11-11T07:28:53;11.20;99.90
54700;DHT22;40599;53.132;6.090;2022-11-11T07:31:19;11.30;99.90
54700;DHT22;40599;53.132;6.090;2022-11-11T07:33:44;11.20;99.90
54700;DHT22;40599;53.132;6.090;2022-11-11T07:36:10;11.20;99.90
54700;DHT22;40599;53.132;6.090;2022-11-11T07:38:36;11.20;99.90
54700;DHT22;40599;53.132;6.090;2022-11-11T07:41:01;11.20;99.90
54700;DHT22;40599;53.132;6.090;2022-11-11T07:43:27;11.20;99.90
54700;DHT22;40599;53.132;6.090;2022-11-11T07:45:52;10.70;99.90
54700;DHT22;40599;53.132;6.090;2022-11-11T07:48:18;11.20;99.90
54700;DHT22;40599;53.132;6.090;2022-11-11T07:50:43;11.20;99.90
54700;DHT22;40599;53.132;6.090;2022-11-11T07:53:09;11.20;99.90
54700;DHT22;40599;53.132;6.090;2022-11-11T07:55:35;11.10;99.90
54700;DHT22;40599;53.132;6.090;2022-11-11T07:58:01;11.40;99.90
54700;DHT22;40599;53.132;6.090;2022-11-11T08:00:27;11.20;99.90
54700;DHT22;40599;53.132;6.090;2022-11-11T08:02:52;11.10;99.90
54700;DHT22;40599;53.132;6.090;2022-11-11T08:05:18;11.20;99.90
54700;DHT22;40599;53.132;6.090;2022-11-11T08:07:44;11.20;99.90
54700;DHT22;40599;53.132;6.090;2022-11-11T08:10:09;11.20;99.90
54700;DHT22;40599;53.132;6.090;2022-11-11T08:12:36;11.20;99.90
54700;DHT22;40599;53.132;6.090;2022-11-11T08:15:20;11.20;99.90
54700;DHT22;40599;53.132;6.090;2022-11-11T08:17:45;11.10;99.90
54700;DHT22;40599;53.132;6.090;2022-11-11T08:20:11;11.20;99.90
54700;DHT22;40599;53.132;6.090;2022-11-11T08:22:38;11.20;99.90
54700;DHT22;40599;53.132;6.090;2022-11-11T08:25:08;11.20;99.90
54700;DHT22;40599;53.132;6.090;2022-11-11T08:27:34;11.10;99.90
54700;DHT22;40599;53.132;6.090;2022-11-11T08:30:00;11.20;99.90
54700;DHT22;40599;53.132;6.090;2022-11-11T08:32:25;10.80;99.90
54700;DHT22;40599;53.132;6.090;2022-11-11T08:34:51;11.20;99.90
54700;DHT22;40599;53.132;6.090;2022-11-11T08:37:17;11.20;99.90
54700;DHT22;40599;53.132;6.090;2022-11-11T08:39:42;11.20;99.90
54700;DHT22;40599;53.132;6.090;2022-11-11T08:42:08;11.00;99.90
54700;DHT22;40599;53.132;6.090;2022-11-11T08:44:33;11.10;99.90
54700;DHT22;40599;53.132;6.090;2022-11-11T08:46:59;11.10;99.90
54700;DHT22;40599;53.132;6.090;2022-11-11T08:49:24;11.10;99.90
54700;DHT22;40599;53.132;6.090;2022-11-11T08:51:50;11.20;99.90
54700;DHT22;40599;53.132;6.090;2022-11-11T08:54:16;11.20;99.90
54700;DHT22;40599;53.132;6.090;2022-11-11T08:56:42;11.10;99.90
54700;DHT22;40599;53.132;6.090;2022-11-11T08:59:08;11.10;99.90
54700;DHT22;40599;53.132;6.090;2022-11-11T09:01:34;11.10;99.90
54700;DHT22;40599;53.132;6.090;2022-11-11T09:04:00;11.10;99.90
54700;DHT22;40599;53.132;6.090;2022-11-11T09:06:27;11.00;99.90
54700;DHT22;40599;53.132;6.090;2022-11-11T09:08:52;11.20;99.90
54700;DHT22;40599;53.132;6.090;2022-11-11T09:11:18;11.00;99.90
54700;DHT22;40599;53.132;6.090;2022-11-11T09:13:45;11.00;99.90
54700;DHT22;40599;53.132;6.090;2022-11-11T09:16:11;11.20;99.90
54700;DHT22;40599;53.132;6.090;2022-11-11T09:18:36;11.10;99.90
54700;DHT22;40599;53.132;6.090;2022-11-11T09:21:02;11.10;99.90
54700;DHT22;40599;53.132;6.090;2022-11-11T09:23:28;11.10;99.90
54700;DHT22;40599;53.132;6.090;2022-11-11T09:25:54;11.10;99.90
54700;DHT22;40599;53.132;6.090;2022-11-11T09:28:22;11.10;99.90
54700;DHT22;40599;53.132;6.090;2022-11-11T09:30:48;11.10;99.90
54700;DHT22;40599;53.132;6.090;2022-11-11T09:33:13;11.10;99.90
54700;DHT22;40599;53.132;6.090;2022-11-11T09:35:40;11.20;99.90
54700;DHT22;40599;53.132;6.090;2022-11-11T09:38:06;11.10;99.90
54700;DHT22;40599;53.132;6.090;2022-11-11T09:40:36;11.00;99.90
54700;DHT22;40599;53.132;6.090;2022-11-11T09:43:09;11.10;99.90
54700;DHT22;40599;53.132;6.090;2022-11-11T09:48:37;11.10;99.90
54700;DHT22;40599;53.132;6.090;2022-11-11T09:50:53;11.10;99.90
54700;DHT22;40599;53.132;6.090;2022-11-11T09:53:27;11.20;99.90
54700;DHT22;40599;53.132;6.090;2022-11-11T09:55:55;11.10;99.90
54700;DHT22;40599;53.132;6.090;2022-11-11T09:58:24;11.10;99.90
54700;DHT22;40599;53.132;6.090;2022-11-11T10:01:01;11.10;99.90
54700;DHT22;40599;53.132;6.090;2022-11-11T10:03:30;11.10;99.90
54700;DHT22;40599;53.132;6.090;2022-11-11T10:08:36;11.10;99.90
54700;DHT22;40599;53.132;6.090;2022-11-11T10:11:11;11.20;99.90
54700;DHT22;40599;53.132;6.090;2022-11-11T10:13:38;11.20;99.90
54700;DHT22;40599;53.132;6.090;2022-11-11T10:21:04;11.10;99.90
54700;DHT22;40599;53.132;6.090;2022-11-11T10:23:33;11.20;99.90
54700;DHT22;40599;53.132;6.090;2022-11-11T10:26:01;11.20;99.90
54700;DHT22;40599;53.132;6.090;2022-11-11T10:28:29;11.20;99.90
54700;DHT22;40599;53.132;6.090;2022-11-11T10:30:56;11.20;99.90
54700;DHT22;40599;53.132;6.090;2022-11-11T10:33:24;11.20;99.90
54700;DHT22;40599;53.132;6.090;2022-11-11T10:35:51;11.20;99.90
54700;DHT22;40599;53.132;6.090;2022-11-11T10:41:09;11.20;99.90
54700;DHT22;40599;53.132;6.090;2022-11-11T10:43:37;11.30;99.90
54700;DHT22;40599;53.132;6.090;2022-11-11T10:46:06;11.30;99.90
54700;DHT22;40599;53.132;6.090;2022-11-11T10:51:14;11.30;99.90
54700;DHT22;40599;53.132;6.090;2022-11-11T10:56:39;11.30;99.90
54700;DHT22;40599;53.132;6.090;2022-11-11T10:59:10;11.30;99.90
54700;DHT22;40599;53.132;6.090;2022-11-11T11:01:37;11.30;99.90
54700;DHT22;40599;53.132;6.090;2022-11-11T11:04:05;11.30;99.90
54700;DHT22;40599;53.132;6.090;2022-11-11T11:06:33;11.30;99.90
54700;DHT22;40599;53.132;6.090;2022-11-11T11:09:01;11.30;99.90
54700;DHT22;40599;53.132;6.090;2022-11-11T11:11:40;11.30;99.90
54700;DHT22;40599;53.132;6.090;2022-11-11T11:14:20;11.30;99.90
54700;DHT22;40599;53.132;6.090;2022-11-11T11:16:51;11.30;99.90
54700;DHT22;40599;53.132;6.090;2022-11-11T11:19:20;11.20;99.90
54700;DHT22;40599;53.132;6.090;2022-11-11T11:24:31;11.20;99.90
54700;DHT22;40599;53.132;6.090;2022-11-11T11:26:58;11.20;99.90
54700;DHT22;40599;53.132;6.090;2022-11-11T11:29:25;11.20;99.90
54700;DHT22;40599;53.132;6.090;2022-11-11T11:31:51;11.20;99.90
54700;DHT22;40599;53.132;6.090;2022-11-11T11:34:17;11.20;99.90
54700;DHT22;40599;53.132;6.090;2022-11-11T11:36:42;11.20;99.90
54700;DHT22;40599;53.132;6.090;2022-11-11T11:39:08;11.20;99.90
54700;DHT22;40599;53.132;6.090;2022-11-11T11:44:02;11.20;99.90
54700;DHT22;40599;53.132;6.090;2022-11-11T11:46:36;11.20;99.90
54700;DHT22;40599;53.132;6.090;2022-11-11T11:51:35;11.10;99.90
54700;DHT22;40599;53.132;6.090;2022-11-11T11:56:37;11.20;99.90
54700;DHT22;40599;53.132;6.090;2022-11-11T11:59:14;11.10;99.90
54700;DHT22;40599;53.132;6.090;2022-11-11T12:01:54;11.20;99.90
54700;DHT22;40599;53.132;6.090;2022-11-11T12:14:37;11.20;99.90
54700;DHT22;40599;53.132;6.090;2022-11-11T12:24:54;11.10;99.90
54700;DHT22;40599;53.132;6.090;2022-11-11T12:32:51;11.20;99.90
54700;DHT22;40599;53.132;6.090;2022-11-11T12:42:57;11.10;99.90
54700;DHT22;40599;53.132;6.090;2022-11-11T12:45:34;11.10;99.90
54700;DHT22;40599;53.132;6.090;2022-11-11T12:48:08;11.10;99.90
54700;DHT22;40599;53.132;6.090;2022-11-11T12:50:37;11.10;99.90
54700;DHT22;40599;53.132;6.090;2022-11-11T12:58:56;11.10;99.90
54700;DHT22;40599;53.132;6.090;2022-11-11T13:16:51;11.20;99.90
54700;DHT22;40599;53.132;6.090;2022-11-11T13:21:52;11.10;99.90
54700;DHT22;40599;53.132;6.090;2022-11-11T13:24:21;11.20;99.90
54700;DHT22;40599;53.132;6.090;2022-11-11T13:26:51;11.20;99.90
54700;DHT22;40599;53.132;6.090;2022-11-11T13:30:05;11.10;99.90
54700;DHT22;40599;53.132;6.090;2022-11-11T13:32:04;11.20;99.90
54700;DHT22;40599;53.132;6.090;2022-11-11T13:34:31;11.20;99.90
54700;DHT22;40599;53.132;6.090;2022-11-11T13:37:02;11.20;99.90
54700;DHT22;40599;53.132;6.090;2022-11-11T13:40:31;11.30;99.90
54700;DHT22;40599;53.132;6.090;2022-11-11T13:42:25;11.20;99.90
54700;DHT22;40599;53.132;6.090;2022-11-11T13:44:53;11.20;99.90
54700;DHT22;40599;53.132;6.090;2022-11-11T13:47:21;11.20;99.90
54700;DHT22;40599;53.132;6.090;2022-11-11T13:49:55;11.20;99.90
54700;DHT22;40599;53.132;6.090;2022-11-11T13:52:23;11.20;99.90
54700;DHT22;40599;53.132;6.090;2022-11-11T13:54:55;11.20;99.90
54700;DHT22;40599;53.132;6.090;2022-11-11T13:57:23;11.20;99.90
54700;DHT22;40599;53.132;6.090;2022-11-11T14:00:02;11.20;99.90
54700;DHT22;40599;53.132;6.090;2022-11-11T14:02:31;11.20;99.90
54700;DHT22;40599;53.132;6.090;2022-11-11T14:17:56;11.20;99.90
54700;DHT22;40599;53.132;6.090;2022-11-11T14:25:41;11.20;99.90
54700;DHT22;40599;53.132;6.090;2022-11-11T14:30:44;11.20;99.90
54700;DHT22;40599;53.132;6.090;2022-11-11T14:38:49;11.20;99.90
54700;DHT22;40599;53.132;6.090;2022-11-11T14:49:48;11.20;99.90
54700;DHT22;40599;53.132;6.090;2022-11-11T14:52:25;11.20;99.90
54700;DHT22;40599;53.132;6.090;2022-11-11T14:57:29;11.20;99.90
54700;DHT22;40599;53.132;6.090;2022-11-11T14:59:56;11.20;99.90
54700;DHT22;40599;53.132;6.090;2022-11-11T15:02:26;11.20;99.90
54700;DHT22;40599;53.132;6.090;2022-11-11T15:04:53;11.20;99.90
54700;DHT22;40599;53.132;6.090;2022-11-11T15:07:26;11.20;99.90
54700;DHT22;40599;53.132;6.090;2022-11-11T15:12:29;11.10;99.90
54700;DHT22;40599;53.132;6.090;2022-11-11T15:15:14;11.10;99.90
54700;DHT22;40599;53.132;6.090;2022-11-11T15:18:01;11.10;99.90
54700;DHT22;40599;53.132;6.090;2022-11-11T15:33:23;11.00;99.90
54700;DHT22;40599;53.132;6.090;2022-11-11T15:38:17;11.00;99.90
54700;DHT22;40599;53.132;6.090;2022-11-11T15:40:44;11.00;99.90
54700;DHT22;40599;53.132;6.090;2022-11-11T15:43:15;11.00;99.90
54700;DHT22;40599;53.132;6.090;2022-11-11T15:45:41;11.00;99.90
54700;DHT22;40599;53.132;6.090;2022-11-11T15:48:17;11.00;99.90
54700;DHT22;40599;53.132;6.090;2022-11-11T15:50:44;11.00;99.90
54700;DHT22;40599;53.132;6.090;2022-11-11T15:53:10;11.00;99.90
54700;DHT22;40599;53.132;6.090;2022-11-11T15:55:37;11.00;99.90
54700;DHT22;40599;53.132;6.090;2022-11-11T15:58:13;11.00;99.90
54700;DHT22;40599;53.132;6.090;2022-11-11T16:00:39;11.00;99.90
54700;DHT22;40599;53.132;6.090;2022-11-11T16:03:05;11.00;99.90
54700;DHT22;40599;53.132;6.090;2022-11-11T16:05:37;11.00;99.90
54700;DHT22;40599;53.132;6.090;2022-11-11T16:08:06;11.00;99.90
54700;DHT22;40599;53.132;6.090;2022-11-11T16:10:34;11.00;99.90
54700;DHT22;40599;53.132;6.090;2022-11-11T16:15:36;10.90;99.90
54700;DHT22;40599;53.132;6.090;2022-11-11T16:18:03;10.90;99.90
54700;DHT22;40599;53.132;6.090;2022-11-11T16:20:49;10.90;99.90
54700;DHT22;40599;53.132;6.090;2022-11-11T16:23:17;10.90;99.90
54700;DHT22;40599;53.132;6.090;2022-11-11T16:25:44;10.90;99.90
54700;DHT22;40599;53.132;6.090;2022-11-11T16:28:10;10.90;99.90
54700;DHT22;40599;53.132;6.090;2022-11-11T16:30:36;10.90;99.90
54700;DHT22;40599;53.132;6.090;2022-11-11T16:33:02;10.90;99.90
54700;DHT22;40599;53.132;6.090;2022-11-11T16:35:37;10.90;99.90
54700;DHT22;40599;53.132;6.090;2022-11-11T16:38:03;10.90;99.90
54700;DHT22;40599;53.132;6.090;2022-11-11T16:43:13;10.90;99.90
54700;DHT22;40599;53.132;6.090;2022-11-11T16:49:06;10.90;99.90
54700;DHT22;40599;53.132;6.090;2022-11-11T16:53:33;10.90;99.90
54700;DHT22;40599;53.132;6.090;2022-11-11T16:56:00;10.90;99.90
54700;DHT22;40599;53.132;6.090;2022-11-11T16:58:26;10.90;99.90
54700;DHT22;40599;53.132;6.090;2022-11-11T17:01:02;10.90;99.90
54700;DHT22;40599;53.132;6.090;2022-11-11T17:03:28;12.90;99.90
54700;DHT22;40599;53.132;6.090;2022-11-11T17:05:55;10.90;99.90
54700;DHT22;40599;53.132;6.090;2022-11-11T17:11:06;10.90;99.90
54700;DHT22;40599;53.132;6.090;2022-11-11T17:13:32;10.90;99.90
54700;DHT22;40599;53.132;6.090;2022-11-11T17:16:02;10.90;99.90
54700;DHT22;40599;53.132;6.090;2022-11-11T17:18:38;10.90;99.90
54700;DHT22;40599;53.132;6.090;2022-11-11T17:21:05;10.90;99.90
54700;DHT22;40599;53.132;6.090;2022-11-11T17:23:31;11.00;99.90
54700;DHT22;40599;53.132;6.090;2022-11-11T17:25:57;11.00;99.90
54700;DHT22;40599;53.132;6.090;2022-11-11T17:28:25;11.00;99.90
54700;DHT22;40599;53.132;6.090;2022-11-11T17:30:50;11.00;99.90
54700;DHT22;40599;53.132;6.090;2022-11-11T17:33:16;11.00;99.90
54700;DHT22;40599;53.132;6.090;2022-11-11T17:35:48;11.00;99.90
54700;DHT22;40599;53.132;6.090;2022-11-11T17:38:14;11.00;99.90
54700;DHT22;40599;53.132;6.090;2022-11-11T17:40:43;11.00;99.90
54700;DHT22;40599;53.132;6.090;2022-11-11T17:43:08;10.90;99.90
54700;DHT22;40599;53.132;6.090;2022-11-11T17:45:34;11.00;99.90
54700;DHT22;40599;53.132;6.090;2022-11-11T17:47:59;11.00;99.90
54700;DHT22;40599;53.132;6.090;2022-11-11T17:50:25;11.00;99.90
54700;DHT22;40599;53.132;6.090;2022-11-11T17:52:53;11.00;99.90
54700;DHT22;40599;53.132;6.090;2022-11-11T17:55:19;11.00;99.90
54700;DHT22;40599;53.132;6.090;2022-11-11T17:57:44;11.00;99.90
54700;DHT22;40599;53.132;6.090;2022-11-11T18:00:10;11.00;99.90
54700;DHT22;40599;53.132;6.090;2022-11-11T18:02:36;11.00;99.90
54700;DHT22;40599;53.132;6.090;2022-11-11T18:05:01;10.90;99.90
54700;DHT22;40599;53.132;6.090;2022-11-11T18:07:27;11.00;99.90
54700;DHT22;40599;53.132;6.090;2022-11-11T18:09:53;10.90;99.90
54700;DHT22;40599;53.132;6.090;2022-11-11T18:12:18;11.00;99.90
54700;DHT22;40599;53.132;6.090;2022-11-11T18:14:44;10.90;99.90
54700;DHT22;40599;53.132;6.090;2022-11-11T18:17:10;11.00;99.90
54700;DHT22;40599;53.132;6.090;2022-11-11T18:19:35;10.90;99.90
54700;DHT22;40599;53.132;6.090;2022-11-11T18:22:01;10.90;99.90
54700;DHT22;40599;53.132;6.090;2022-11-11T18:24:26;10.90;99.90